Time;durP1;ratioP1;P1;durP2;ratioP2;P2;SDS_P1;SDS_P2;PMS_P1;PMS_P2;Temp;Humidity;BMP_temperature;BMP_pressure;BME280_temperature;BME280_humidity;BME280_pressure;Samples;Min_cycle;Max_cycle;Signal;HPM_P1;HPM_P2
2021/05/16 00:01:21;;;;;;;2.00;1.63;;;11.70;99.90;;;;;;5021581;28;20666;-72
2021/05/16 00:03:48;;;;;;;1.67;1.57;;;11.80;99.90;;;;;;5021053;28;20208;-72
2021/05/16 00:06:14;;;;;;;2.80;1.70;;;11.70;99.90;;;;;;5021379;28;20196;-72
2021/05/16 00:08:40;;;;;;;1.70;1.60;;;11.60;99.90;;;;;;5022130;28;21204;-73
2021/05/16 00:11:06;;;;;;;3.87;2.20;;;11.70;99.90;;;;;;5004465;28;20431;-70
2021/05/16 00:13:32;;;;;;;2.87;1.90;;;11.60;99.90;;;;;;5020867;28;20486;-71
2021/05/16 00:15:58;;;;;;;2.50;1.60;;;11.60;99.90;;;;;;5020791;28;20485;-72
2021/05/16 00:18:23;;;;;;;3.43;1.83;;;11.50;99.90;;;;;;5019821;28;20439;-69
2021/05/16 00:20:49;;;;;;;1.90;1.70;;;11.50;99.90;;;;;;5019785;28;20267;-70
2021/05/16 00:23:15;;;;;;;4.13;1.53;;;11.50;99.90;;;;;;5019565;28;20234;-70
2021/05/16 00:25:41;;;;;;;2.47;1.80;;;11.50;99.90;;;;;;5021588;28;20479;-70
2021/05/16 00:28:07;;;;;;;2.90;1.70;;;11.40;99.90;;;;;;5021125;28;20322;-70
2021/05/16 00:30:33;;;;;;;3.73;2.13;;;11.40;99.90;;;;;;5004602;28;20526;-69
2021/05/16 00:33:00;;;;;;;2.37;2.20;;;11.40;99.90;;;;;;5022033;28;20204;-70
2021/05/16 00:35:28;;;;;;;3.10;1.77;;;11.40;99.90;;;;;;5020204;28;22528;-71
2021/05/16 00:37:55;;;;;;;1.93;1.30;;;11.50;99.90;;;;;;5020663;28;20447;-71
2021/05/16 00:40:21;;;;;;;3.40;1.73;;;11.40;99.90;;;;;;5022067;28;20526;-71
2021/05/16 00:42:47;;;;;;;2.40;1.93;;;11.40;99.90;;;;;;5022957;28;20451;-70
2021/05/16 00:45:19;;;;;;;3.00;1.87;;;11.40;99.90;;;;;;5003882;28;20459;-71
2021/05/16 00:47:51;;;;;;;4.50;1.60;;;11.40;99.90;;;;;;5020999;28;20892;-73
2021/05/16 00:50:19;;;;;;;2.33;1.60;;;11.40;99.90;;;;;;5001117;28;21012;-71
2021/05/16 00:52:45;;;;;;;2.33;1.80;;;11.40;99.90;;;;;;5020198;28;20509;-72
2021/05/16 00:55:14;;;;;;;3.07;1.90;;;11.40;99.90;;;;;;5021200;28;20435;-70
2021/05/16 00:57:40;;;;;;;3.30;2.20;;;11.40;99.90;;;;;;4971695;28;20495;-74
2021/05/16 01:00:10;;;;;;;2.00;1.80;;;11.40;99.90;;;;;;5022196;28;21063;-71
2021/05/16 01:02:36;;;;;;;1.97;1.77;;;11.40;99.90;;;;;;5020765;28;21073;-69
2021/05/16 01:05:02;;;;;;;2.67;1.63;;;11.40;99.90;;;;;;5018717;28;20471;-71
2021/05/16 01:07:28;;;;;;;3.87;1.90;;;11.40;99.90;;;;;;5021612;28;20534;-73
2021/05/16 01:09:54;;;;;;;1.70;1.60;;;11.40;99.90;;;;;;5020986;28;20526;-71
2021/05/16 01:12:20;;;;;;;5.73;1.60;;;11.30;99.90;;;;;;5019289;28;20231;-71
2021/05/16 01:14:47;;;;;;;4.30;1.83;;;11.40;99.90;;;;;;5003905;28;20447;-71
2021/05/16 01:17:13;;;;;;;3.43;2.20;;;11.40;99.90;;;;;;5019574;28;20238;-73
2021/05/16 01:19:39;;;;;;;3.37;1.83;;;11.40;99.90;;;;;;5020018;28;20447;-73
2021/05/16 01:22:07;;;;;;;2.33;1.70;;;11.40;99.90;;;;;;5021403;28;20250;-72
2021/05/16 01:24:33;;;;;;;3.87;1.97;;;11.40;99.90;;;;;;5019093;28;20979;-69
2021/05/16 01:27:00;;;;;;;2.73;1.93;;;11.40;99.90;;;;;;5020678;28;20462;-71
2021/05/16 01:29:26;;;;;;;2.87;1.50;;;11.30;99.90;;;;;;5019921;28;20439;-71
2021/05/16 01:31:52;;;;;;;3.20;1.97;;;11.40;99.90;;;;;;5018866;28;20447;-71
2021/05/16 01:34:18;;;;;;;2.87;1.73;;;11.40;99.90;;;;;;5003384;28;20485;-72
2021/05/16 01:36:44;;;;;;;2.73;2.20;;;11.40;99.90;;;;;;5020514;28;20427;-71
2021/05/16 01:39:13;;;;;;;2.50;2.10;;;11.40;99.90;;;;;;5020550;28;20263;-72
2021/05/16 01:41:39;;;;;;;2.33;1.80;;;11.40;99.90;;;;;;5002494;28;20677;-71
2021/05/16 01:44:09;;;;;;;2.07;1.87;;;11.40;99.90;;;;;;5020500;28;20463;-70
2021/05/16 01:46:35;;;;;;;1.83;1.60;;;11.40;99.90;;;;;;5021638;28;20439;-70
2021/05/16 01:49:00;;;;;;;2.97;1.93;;;11.50;99.90;;;;;;5019812;28;20431;-71
2021/05/16 01:51:29;;;;;;;1.97;1.77;;;11.40;99.90;;;;;;5020304;28;20427;-71
2021/05/16 01:53:55;;;;;;;2.30;1.70;;;11.40;99.90;;;;;;5020501;28;20204;-70
2021/05/16 01:56:23;;;;;;;3.10;1.80;;;11.40;99.90;;;;;;5021576;28;20462;-70
2021/05/16 01:58:50;;;;;;;5.13;1.67;;;11.40;99.90;;;;;;5019167;28;20439;-69
2021/05/16 02:01:16;;;;;;;2.00;1.60;;;11.50;99.90;;;;;;5020321;28;20463;-72
2021/05/16 02:03:43;;;;;;;5.47;2.13;;;11.50;99.90;;;;;;5021373;28;22354;-71
2021/05/16 02:06:09;;;;;;;4.53;2.40;;;11.50;99.90;;;;;;4998897;28;20466;-70
2021/05/16 02:08:36;;;;;;;4.00;2.17;;;11.50;99.90;;;;;;5019602;28;20537;-71
2021/05/16 02:11:04;;;;;;;1.70;1.60;;;11.50;99.90;;;;;;5020493;28;20431;-71
2021/05/16 02:13:29;;;;;;;2.00;1.67;;;11.50;99.90;;;;;;5017209;28;20474;-69
2021/05/16 02:15:55;;;;;;;3.63;2.00;;;11.40;99.90;;;;;;5019729;28;20447;-70
2021/05/16 02:18:21;;;;;;;4.07;1.97;;;11.40;99.90;;;;;;5021104;28;20192;-70
2021/05/16 02:20:47;;;;;;;2.30;1.80;;;11.50;99.90;;;;;;5002467;28;20193;-69
2021/05/16 02:23:13;;;;;;;2.90;2.00;;;11.50;99.90;;;;;;5023469;28;20216;-70
2021/05/16 02:25:38;;;;;;;5.50;2.37;;;11.50;99.90;;;;;;5022807;28;20483;-70
2021/05/16 02:28:06;;;;;;;2.90;1.70;;;11.60;99.90;;;;;;5024506;28;20207;-70
2021/05/16 02:30:32;;;;;;;2.23;1.70;;;11.50;99.90;;;;;;5024810;28;20582;-72
2021/05/16 02:32:57;;;;;;;4.40;2.00;;;11.50;99.90;;;;;;5022581;28;20520;-70
2021/05/16 02:35:23;;;;;;;2.00;1.80;;;11.50;99.90;;;;;;5023976;28;20513;-73
2021/05/16 02:37:49;;;;;;;3.00;2.03;;;11.50;99.90;;;;;;5005105;28;20512;-69
2021/05/16 02:40:15;;;;;;;5.77;3.97;;;11.50;99.90;;;;;;5024069;28;20196;-72
2021/05/16 02:42:41;;;;;;;2.03;1.80;;;11.50;99.90;;;;;;5018726;28;20255;-71
2021/05/16 02:45:07;;;;;;;2.70;2.20;;;11.50;99.90;;;;;;5023270;28;20840;-72
2021/05/16 02:47:33;;;;;;;2.10;1.90;;;11.50;99.90;;;;;;5024055;28;20231;-70
2021/05/16 02:49:59;;;;;;;2.83;1.70;;;11.50;99.90;;;;;;5024706;28;20447;-71
2021/05/16 02:52:24;;;;;;;2.20;1.83;;;11.50;99.90;;;;;;5023391;28;20228;-73
2021/05/16 02:54:50;;;;;;;4.00;2.03;;;11.60;99.90;;;;;;5022665;28;20201;-71
2021/05/16 02:57:15;;;;;;;3.93;1.80;;;11.70;99.90;;;;;;5022418;28;20204;-72
2021/05/16 02:59:41;;;;;;;3.87;1.80;;;11.70;99.90;;;;;;5022846;28;20200;-70
2021/05/16 03:02:07;;;;;;;3.40;1.90;;;11.60;99.90;;;;;;5020216;28;21498;-75
2021/05/16 03:04:32;;;;;;;3.90;2.10;;;11.60;99.90;;;;;;5022319;28;20208;-72
2021/05/16 03:06:58;;;;;;;4.77;1.90;;;11.70;99.90;;;;;;5023322;28;20262;-73
2021/05/16 03:09:24;;;;;;;3.30;2.30;;;11.60;99.90;;;;;;5021657;28;20231;-71
2021/05/16 03:11:49;;;;;;;2.67;1.70;;;11.60;99.90;;;;;;5023379;28;20212;-70
2021/05/16 03:14:16;;;;;;;2.13;1.90;;;11.70;99.90;;;;;;5020421;28;20383;-72
2021/05/16 03:16:41;;;;;;;2.93;2.03;;;11.70;99.90;;;;;;5022877;28;20200;-70
2021/05/16 03:19:07;;;;;;;2.90;1.80;;;11.70;99.90;;;;;;5025087;28;20797;-72
2021/05/16 03:21:33;;;;;;;3.50;2.83;;;11.70;99.90;;;;;;5021117;28;20692;-70
2021/05/16 03:23:59;;;;;;;2.10;1.90;;;11.70;99.90;;;;;;5022297;28;20445;-71
2021/05/16 03:26:24;;;;;;;4.53;2.17;;;11.80;99.90;;;;;;5023321;28;20212;-71
2021/05/16 03:28:51;;;;;;;2.13;1.90;;;11.70;99.90;;;;;;5022042;28;23021;-73
2021/05/16 03:31:16;;;;;;;3.63;1.97;;;11.70;99.90;;;;;;5002879;28;20259;-70
2021/05/16 03:33:42;;;;;;;4.10;2.60;;;11.60;99.90;;;;;;5022308;28;20463;-72
2021/05/16 03:36:08;;;;;;;4.03;1.83;;;11.60;99.90;;;;;;5022174;28;20227;-72
2021/05/16 03:38:33;;;;;;;2.57;2.27;;;11.50;99.90;;;;;;5023053;28;20234;-72
2021/05/16 03:40:59;;;;;;;3.40;2.03;;;11.50;99.90;;;;;;5022759;28;20189;-71
2021/05/16 03:43:26;;;;;;;3.73;2.10;;;11.50;99.90;;;;;;5021861;28;20224;-71
2021/05/16 03:45:52;;;;;;;3.23;1.97;;;11.50;99.90;;;;;;5022157;28;20219;-70
2021/05/16 03:48:18;;;;;;;4.23;2.00;;;11.50;99.90;;;;;;5021538;28;20884;-69
2021/05/16 03:50:44;;;;;;;2.80;1.90;;;11.50;99.90;;;;;;5023901;28;20193;-69
2021/05/16 03:53:09;;;;;;;2.50;2.00;;;11.50;99.90;;;;;;5022993;28;20291;-73
2021/05/16 03:55:35;;;;;;;4.23;2.17;;;11.50;99.90;;;;;;5021341;28;20201;-72
2021/05/16 03:58:01;;;;;;;6.80;2.53;;;11.50;99.90;;;;;;5019869;28;20199;-72
2021/05/16 04:00:26;;;;;;;3.20;2.30;;;11.60;99.90;;;;;;5023289;28;20203;-71
2021/05/16 04:02:52;;;;;;;6.60;2.27;;;11.50;99.90;;;;;;5003954;28;20223;-72
2021/05/16 04:05:18;;;;;;;4.43;2.33;;;11.50;99.90;;;;;;5022787;28;20694;-71
2021/05/16 04:07:44;;;;;;;3.97;2.10;;;11.60;99.90;;;;;;5023788;28;20260;-71
2021/05/16 04:10:10;;;;;;;2.50;2.10;;;11.60;99.90;;;;;;5022052;28;20210;-71
2021/05/16 04:12:35;;;;;;;5.30;1.80;;;11.70;99.90;;;;;;5021439;28;20977;-73
2021/05/16 04:15:03;;;;;;;3.57;2.57;;;11.60;99.90;;;;;;5022326;28;20485;-73
2021/05/16 04:17:28;;;;;;;3.33;2.23;;;11.60;99.90;;;;;;5021199;28;20211;-71
2021/05/16 04:19:54;;;;;;;3.87;2.03;;;11.60;99.90;;;;;;5023507;28;20451;-70
2021/05/16 04:22:20;;;;;;;4.17;1.90;;;11.60;99.90;;;;;;5019267;28;20701;-69
2021/05/16 04:24:46;;;;;;;2.10;1.90;;;11.60;99.90;;;;;;5020764;28;20477;-72
2021/05/16 04:27:11;;;;;;;2.90;2.17;;;11.60;99.90;;;;;;5022700;28;20735;-70
2021/05/16 04:29:37;;;;;;;2.90;2.10;;;11.70;99.90;;;;;;5020289;28;20919;-69
2021/05/16 04:32:03;;;;;;;5.10;1.93;;;11.70;99.90;;;;;;5019017;28;20455;-72
2021/05/16 04:34:29;;;;;;;2.50;2.23;;;11.70;99.90;;;;;;5021439;28;20200;-71
2021/05/16 04:36:54;;;;;;;2.80;2.17;;;11.70;99.90;;;;;;5021127;28;20454;-73
2021/05/16 04:39:20;;;;;;;5.70;1.90;;;11.70;99.90;;;;;;5022548;28;20203;-72
2021/05/16 04:41:46;;;;;;;3.80;2.53;;;11.70;99.90;;;;;;5022385;28;20231;-73
2021/05/16 04:44:12;;;;;;;3.03;1.90;;;11.70;99.90;;;;;;5019297;28;20570;-71
2021/05/16 04:46:37;;;;;;;5.37;2.60;;;11.80;99.90;;;;;;5020958;28;20701;-71
2021/05/16 04:49:03;;;;;;;3.50;1.97;;;11.70;99.90;;;;;;5022818;28;20185;-70
2021/05/16 04:51:29;;;;;;;3.97;2.00;;;11.70;99.90;;;;;;5022369;28;20847;-70
2021/05/16 04:53:55;;;;;;;6.50;2.87;;;11.70;99.90;;;;;;5020208;28;20458;-74
2021/05/16 04:56:21;;;;;;;3.13;1.90;;;11.80;99.90;;;;;;5022232;28;20921;-72
2021/05/16 04:58:46;;;;;;;3.70;2.10;;;11.70;99.90;;;;;;5019876;28;20188;-70
2021/05/16 05:01:13;;;;;;;3.00;2.00;;;11.80;99.90;;;;;;5021941;28;20607;-71
2021/05/16 05:03:38;;;;;;;7.20;2.00;;;11.80;99.90;;;;;;5002601;28;20266;-71
2021/05/16 05:06:04;;;;;;;4.30;1.70;;;11.80;99.90;;;;;;5020711;28;20443;-70
2021/05/16 05:08:30;;;;;;;3.07;1.83;;;11.80;99.90;;;;;;5021016;28;20211;-74
2021/05/16 05:10:56;;;;;;;2.60;2.10;;;11.80;99.90;;;;;;5018727;28;20470;-73
2021/05/16 05:13:22;;;;;;;3.33;2.00;;;11.80;99.90;;;;;;5020084;28;20223;-71
2021/05/16 05:15:48;;;;;;;4.90;1.90;;;11.90;99.90;;;;;;5022069;28;20447;-72
2021/05/16 05:18:18;;;;;;;5.10;1.87;;;11.90;99.90;;;;;;5019782;28;20200;-74
2021/05/16 05:20:44;;;;;;;2.60;1.80;;;11.90;99.90;;;;;;5020286;28;20649;-74
2021/05/16 05:23:09;;;;;;;6.03;2.43;;;12.00;99.90;;;;;;5020946;28;20451;-72
2021/05/16 05:25:35;;;;;;;3.13;1.67;;;12.00;99.90;;;;;;5021923;28;20815;-72
2021/05/16 05:28:01;;;;;;;4.23;1.80;;;12.10;99.90;;;;;;5022447;28;20181;-74
2021/05/16 05:30:27;;;;;;;6.00;1.87;;;12.10;99.90;;;;;;5021061;28;20674;-71
2021/05/16 05:32:52;;;;;;;2.53;1.97;;;12.10;99.90;;;;;;5019652;28;20457;-73
2021/05/16 05:35:19;;;;;;;2.60;1.90;;;12.10;99.90;;;;;;5021725;28;20215;-73
2021/05/16 05:37:44;;;;;;;3.13;2.00;;;12.10;99.90;;;;;;5019568;28;20195;-73
2021/05/16 05:40:12;;;;;;;2.50;1.80;;;12.10;99.90;;;;;;5020073;28;20448;-72
2021/05/16 05:42:38;;;;;;;2.80;2.00;;;12.10;99.90;;;;;;5021344;28;20473;-71
2021/05/16 05:45:05;;;;;;;2.73;2.10;;;12.10;99.90;;;;;;5001324;28;20475;-70
2021/05/16 05:47:31;;;;;;;4.03;2.07;;;12.20;99.90;;;;;;5016960;28;20501;-71
2021/05/16 05:49:57;;;;;;;2.97;1.80;;;12.20;99.90;;;;;;5020278;28;20431;-73
2021/05/16 05:52:22;;;;;;;4.17;1.90;;;12.20;99.90;;;;;;5018778;28;20259;-71
2021/05/16 05:54:48;;;;;;;2.27;1.70;;;12.40;99.90;;;;;;5019575;28;20192;-70
2021/05/16 05:57:14;;;;;;;4.07;1.80;;;12.40;99.90;;;;;;5025029;28;20275;-72
2021/05/16 05:59:39;;;;;;;2.83;2.03;;;12.40;99.90;;;;;;5027785;28;20279;-74
2021/05/16 06:02:05;;;;;;;5.43;1.80;;;12.50;99.90;;;;;;5026441;28;20207;-71
2021/05/16 06:04:31;;;;;;;4.57;3.40;;;12.50;99.90;;;;;;5023242;28;20208;-73
2021/05/16 06:06:57;;;;;;;3.20;2.00;;;12.50;99.90;;;;;;5025597;28;20184;-72
2021/05/16 06:09:23;;;;;;;3.13;1.67;;;12.50;99.90;;;;;;5027139;28;20447;-72
2021/05/16 06:11:48;;;;;;;3.23;1.93;;;12.50;99.90;;;;;;5023923;28;20453;-72
2021/05/16 06:14:14;;;;;;;1.87;1.40;;;12.50;99.90;;;;;;5025793;28;20188;-70
2021/05/16 06:16:40;;;;;;;3.77;2.00;;;12.60;99.90;;;;;;5027196;28;20608;-70
2021/05/16 06:19:05;;;;;;;4.13;1.90;;;12.60;99.90;;;;;;5028124;28;20226;-71
2021/05/16 06:21:31;;;;;;;3.00;2.00;;;12.70;99.90;;;;;;5026915;28;20195;-70
2021/05/16 06:26:33;;;;;;;2.90;1.87;;;12.80;99.90;;;;;;5027779;28;20188;-73
2021/05/16 06:28:59;;;;;;;4.20;1.70;;;12.90;99.90;;;;;;5026689;28;20430;-71
2021/05/16 06:31:25;;;;;;;3.83;2.00;;;12.90;99.90;;;;;;5027527;28;20516;-72
2021/05/16 06:33:51;;;;;;;4.60;1.97;;;12.90;99.90;;;;;;5026188;28;20439;-74
2021/05/16 06:36:17;;;;;;;4.13;2.20;;;13.00;99.90;;;;;;5027101;28;20193;-74
2021/05/16 06:38:43;;;;;;;4.57;2.43;;;13.00;99.90;;;;;;5027284;28;20805;-75
2021/05/16 06:41:08;;;;;;;2.17;1.60;;;13.10;99.90;;;;;;5026515;28;20443;-72
2021/05/16 06:43:34;;;;;;;2.00;1.60;;;13.10;99.90;;;;;;5027145;28;20230;-71
2021/05/16 06:45:59;;;;;;;4.07;1.90;;;13.10;99.90;;;;;;5025840;28;20218;-71
2021/05/16 06:48:26;;;;;;;2.70;1.60;;;13.20;99.90;;;;;;5025399;28;20184;-74
2021/05/16 06:50:52;;;;;;;2.03;1.60;;;13.20;99.90;;;;;;5027482;28;20287;-70
2021/05/16 06:53:18;;;;;;;4.03;1.80;;;13.30;99.90;;;;;;5028793;28;20451;-73
2021/05/16 06:55:44;;;;;;;5.07;1.93;;;13.40;99.90;;;;;;5026226;28;20500;-72
2021/05/16 06:58:09;;;;;;;2.87;1.60;;;13.50;99.90;;;;;;5028123;28;20960;-71
2021/05/16 07:00:35;;;;;;;2.50;1.70;;;13.50;99.90;;;;;;5025101;28;20250;-71
2021/05/16 07:03:01;;;;;;;2.90;1.90;;;13.50;99.90;;;;;;5025032;28;20478;-72
2021/05/16 07:05:26;;;;;;;2.27;1.67;;;13.50;99.90;;;;;;5004602;28;21904;-71
2021/05/16 07:07:52;;;;;;;2.43;1.90;;;13.50;99.90;;;;;;5025308;28;20189;-70
2021/05/16 07:10:17;;;;;;;3.10;1.90;;;13.40;99.90;;;;;;5022080;28;20235;-71
2021/05/16 07:12:43;;;;;;;2.30;1.83;;;13.50;99.90;;;;;;5023705;28;20235;-70
2021/05/16 07:15:12;;;;;;;2.30;1.70;;;13.50;99.90;;;;;;5022201;28;20197;-71
2021/05/16 07:17:38;;;;;;;2.83;1.40;;;13.40;99.90;;;;;;5002366;28;20193;-71
2021/05/16 07:20:04;;;;;;;4.63;2.17;;;13.40;99.90;;;;;;5023927;28;20434;-70
2021/05/16 07:22:30;;;;;;;4.70;2.03;;;13.40;99.90;;;;;;5019887;28;20212;-71
2021/05/16 07:24:56;;;;;;;8.33;1.80;;;13.50;99.90;;;;;;5023208;28;21055;-69
2021/05/16 07:27:21;;;;;;;5.30;2.20;;;13.50;99.90;;;;;;5024190;28;20181;-71
2021/05/16 07:29:49;;;;;;;4.60;2.10;;;13.60;99.90;;;;;;5021929;28;20187;-70
2021/05/16 07:32:14;;;;;;;6.27;2.00;;;13.60;99.90;;;;;;5022653;28;20222;-70
2021/05/16 07:34:40;;;;;;;6.13;2.00;;;13.70;99.90;;;;;;5022783;28;20443;-69
2021/05/16 07:37:06;;;;;;;3.83;1.80;;;13.80;99.90;;;;;;5020841;28;20204;-73
2021/05/16 07:39:31;;;;;;;4.07;1.80;;;13.90;99.90;;;;;;5022381;28;20204;-72
2021/05/16 07:41:57;;;;;;;3.03;1.70;;;13.90;99.90;;;;;;5022452;28;20212;-72
2021/05/16 07:44:23;;;;;;;2.33;1.80;;;13.90;99.90;;;;;;5021542;28;20278;-71
2021/05/16 07:46:48;;;;;;;4.70;2.03;;;14.00;99.90;;;;;;5026097;28;20181;-71
2021/05/16 07:49:14;;;;;;;3.00;1.80;;;14.10;99.90;;;;;;5023503;28;20180;-69
2021/05/16 07:51:41;;;;;;;2.80;1.90;;;14.00;99.90;;;;;;5021546;28;20201;-71
2021/05/16 07:54:07;;;;;;;5.40;1.97;;;14.00;99.90;;;;;;5023130;28;20185;-72
2021/05/16 07:56:33;;;;;;;2.60;1.87;;;14.00;99.90;;;;;;5021151;28;20493;-72
2021/05/16 07:58:58;;;;;;;8.10;2.40;;;14.10;99.90;;;;;;5025084;28;20442;-70
2021/05/16 08:01:24;;;;;;;3.00;1.83;;;14.20;99.90;;;;;;5022395;28;20658;-74
2021/05/16 08:03:50;;;;;;;4.60;2.10;;;14.30;99.90;;;;;;5022595;28;20216;-70
2021/05/16 08:06:15;;;;;;;3.50;2.00;;;14.50;99.90;;;;;;5021902;28;20195;-70
2021/05/16 08:08:41;;;;;;;3.07;1.90;;;14.70;99.90;;;;;;5022546;28;21225;-70
2021/05/16 08:11:07;;;;;;;5.50;2.37;;;14.70;99.90;;;;;;5002698;28;20201;-68
2021/05/16 08:13:32;;;;;;;4.47;2.10;;;14.60;99.90;;;;;;5023892;28;20221;-71
2021/05/16 08:15:58;;;;;;;9.43;2.90;;;14.80;99.90;;;;;;5022498;28;20268;-71
2021/05/16 08:18:24;;;;;;;3.63;2.30;;;14.90;99.90;;;;;;5020681;28;20239;-71
2021/05/16 08:20:49;;;;;;;5.10;2.37;;;14.90;99.90;;;;;;5001968;28;20697;-71
2021/05/16 08:23:15;;;;;;;5.87;2.80;;;15.10;99.90;;;;;;5023299;28;20311;-72
2021/05/16 08:25:41;;;;;;;6.03;3.50;;;15.30;99.90;;;;;;5021452;28;20323;-71
2021/05/16 08:28:08;;;;;;;6.03;2.90;;;15.40;99.90;;;;;;5022978;28;20655;-69
2021/05/16 08:30:34;;;;;;;4.97;2.77;;;15.30;99.90;;;;;;5018178;28;20198;-70
2021/05/16 08:33:00;;;;;;;6.43;3.33;;;15.30;99.90;;;;;;5020451;28;20460;-72
2021/05/16 08:35:25;;;;;;;4.97;2.60;;;15.40;99.90;;;;;;5020453;28;20874;-72
2021/05/16 08:37:51;;;;;;;7.27;3.20;;;15.60;99.90;;;;;;5021851;28;20331;-74
2021/05/16 08:40:17;;;;;;;5.90;2.43;;;15.70;99.90;;;;;;5022977;28;20507;-73
2021/05/16 08:42:43;;;;;;;5.50;2.47;;;15.70;99.90;;;;;;5020349;28;20227;-71
2021/05/16 08:45:12;;;;;;;5.93;2.60;;;15.70;99.90;;;;;;5021011;28;20463;-71
2021/05/16 08:47:40;;;;;;;3.20;2.30;;;15.80;99.90;;;;;;5019849;28;20525;-71
2021/05/16 08:50:08;;;;;;;4.90;2.63;;;15.80;99.90;;;;;;5020915;28;20420;-74
2021/05/16 08:52:34;;;;;;;6.37;2.90;;;15.70;99.90;;;;;;5019150;28;20566;-75
2021/05/16 08:55:00;;;;;;;6.30;2.40;;;15.60;99.90;;;;;;5018244;28;20479;-73
2021/05/16 08:57:25;;;;;;;4.03;2.57;;;15.60;99.90;;;;;;5008577;28;20451;-75
2021/05/16 09:00:08;;;;;;;7.30;2.87;;;15.80;99.90;;;;;;5018996;28;20627;-73
2021/05/16 09:02:34;;;;;;;5.50;3.00;;;15.90;99.90;;;;;;4996417;28;20220;-74
2021/05/16 09:05:00;;;;;;;3.10;2.63;;;15.90;99.90;;;;;;5015345;28;20475;-70
2021/05/16 09:07:30;;;;;;;4.50;2.50;;;16.10;99.90;;;;;;5016545;28;20513;-70
2021/05/16 09:09:56;;;;;;;5.03;2.80;;;16.20;99.90;;;;;;5017788;28;20500;-70
2021/05/16 09:12:22;;;;;;;8.53;2.70;;;16.40;99.90;;;;;;4996991;28;20467;-71
2021/05/16 09:14:57;;;;;;;7.43;4.30;;;16.30;99.90;;;;;;5016417;28;20196;-71
2021/05/16 09:17:34;;;;;;;3.77;2.47;;;16.00;99.90;;;;;;5016401;28;21589;-71
2021/05/16 09:20:02;;;;;;;9.27;2.77;;;15.80;99.90;;;;;;5013162;28;20450;-71
2021/05/16 09:22:46;;;;;;;6.30;4.47;;;15.70;99.90;;;;;;5018312;28;21299;-74
2021/05/16 09:25:26;;;;;;;6.30;3.10;;;16.00;99.90;;;;;;5018077;28;20510;-75
2021/05/16 09:27:57;;;;;;;8.00;3.60;;;16.00;99.90;;;;;;5017755;28;20493;-69
2021/05/16 09:30:24;;;;;;;5.23;3.03;;;16.20;99.90;;;;;;5016719;28;20458;-73
2021/05/16 09:32:55;;;;;;;6.13;3.10;;;16.50;99.90;;;;;;4995558;28;20568;-71
2021/05/16 09:35:39;;;;;;;8.20;3.77;;;16.60;99.90;;;;;;5013380;28;20551;-73
2021/05/16 09:38:19;;;;;;;7.00;2.50;;;16.50;99.90;;;;;;5014982;28;20896;-71
2021/05/16 09:40:46;;;;;;;4.83;3.23;;;16.40;99.90;;;;;;5002095;28;20452;-71
2021/05/16 09:43:26;;;;;;;8.20;3.40;;;16.30;99.90;;;;;;5016851;28;20463;-70
2021/05/16 09:46:02;;;;;;;9.43;3.30;;;16.00;99.90;;;;;;5016881;28;20570;-70
2021/05/16 09:48:39;;;;;;;6.60;2.63;;;15.70;99.90;;;;;;5015221;28;20442;-70
2021/05/16 09:51:12;;;;;;;3.50;2.60;;;15.70;99.90;;;;;;5016570;28;20814;-71
2021/05/16 09:53:49;;;;;;;4.50;2.77;;;15.60;99.90;;;;;;5017676;28;20467;-73
2021/05/16 09:56:17;;;;;;;4.10;3.13;;;15.50;99.90;;;;;;5015834;28;20423;-72
2021/05/16 09:58:43;;;;;;;8.03;3.03;;;15.50;99.90;;;;;;5012211;28;20517;-72
2021/05/16 10:01:10;;;;;;;5.57;2.80;;;15.70;99.90;;;;;;5007498;28;20475;-73
2021/05/16 10:03:37;;;;;;;5.23;2.50;;;15.80;99.90;;;;;;5015328;28;20455;-71
2021/05/16 10:06:03;;;;;;;3.53;2.73;;;16.00;99.90;;;;;;5015220;28;20616;-73
2021/05/16 10:08:30;;;;;;;7.17;2.70;;;16.20;99.90;;;;;;5017820;28;21075;-73
2021/05/16 10:10:57;;;;;;;4.67;3.23;;;16.40;99.90;;;;;;5013113;28;21095;-75
2021/05/16 10:13:26;;;;;;;4.10;2.67;;;16.70;99.90;;;;;;5015919;28;20451;-71
2021/05/16 10:15:53;;;;;;;5.83;2.93;;;16.90;99.90;;;;;;5014822;28;21143;-70
2021/05/16 10:18:19;;;;;;;7.30;3.80;;;17.20;99.90;;;;;;5012711;28;20458;-71
2021/05/16 10:20:45;;;;;;;5.10;3.57;;;17.40;99.90;;;;;;4998282;28;20937;-70
2021/05/16 10:23:11;;;;;;;2.90;2.70;;;17.50;99.90;;;;;;5017409;28;20466;-71
2021/05/16 10:25:46;;;;;;;5.97;3.00;;;17.60;99.90;;;;;;5015178;28;20228;-71
2021/05/16 10:28:15;;;;;;;3.50;3.17;;;17.70;99.90;;;;;;5017200;28;20271;-73
2021/05/16 10:30:59;;;;;;;6.03;3.30;;;18.00;99.90;;;;;;5014442;28;20440;-72
2021/05/16 10:33:41;;;;;;;3.20;2.50;;;18.30;99.90;;;;;;5014979;28;21226;-71
2021/05/16 10:36:06;;;;;;;3.53;2.93;;;18.10;99.90;;;;;;5013245;28;20439;-71
2021/05/16 10:38:42;;;;;;;7.30;2.80;;;17.80;99.90;;;;;;5016249;28;20462;-70
2021/05/16 10:41:18;;;;;;;7.03;3.13;;;17.70;99.90;;;;;;5014815;28;20659;-72
2021/05/16 10:43:44;;;;;;;5.70;2.80;;;17.90;99.90;;;;;;5014294;28;21329;-74
2021/05/16 10:46:37;;;;;;;5.50;2.80;;;18.20;99.90;;;;;;5020512;28;20657;-72
2021/05/16 10:49:23;;;;;;;5.80;2.50;;;18.30;99.90;;;;;;5019651;28;20435;-73
2021/05/16 10:51:50;;;;;;;3.30;2.77;;;18.30;99.90;;;;;;5020304;28;20457;-71
2021/05/16 10:54:29;;;;;;;10.37;4.00;;;18.20;99.90;;;;;;5015979;28;20474;-70
2021/05/16 10:57:19;;;;;;;4.43;2.97;;;18.00;99.90;;;;;;5019190;28;21109;-69
2021/05/16 10:59:45;;;;;;;4.70;2.93;;;17.80;99.90;;;;;;5019798;28;20522;-69
2021/05/16 11:02:30;;;;;;;4.43;3.10;;;17.50;99.90;;;;;;5022549;28;20470;-71
2021/05/16 11:04:56;;;;;;;3.50;2.57;;;17.40;99.90;;;;;;5018696;28;21033;-68
2021/05/16 11:07:35;;;;;;;6.00;3.33;;;17.50;99.90;;;;;;5015462;28;20509;-70
2021/05/16 11:10:22;;;;;;;11.00;6.50;;;17.80;99.90;;;;;;5016680;28;20195;-72
2021/05/16 11:12:48;;;;;;;6.13;3.07;;;18.00;99.90;;;;;;5013816;28;20608;-67
2021/05/16 11:15:25;;;;;;;7.13;2.90;;;18.20;99.90;;;;;;4987007;28;20447;-69
2021/05/16 11:17:51;;;;;;;8.00;3.30;;;18.70;99.90;;;;;;4997945;28;20462;-70
2021/05/16 11:20:20;;;;;;;2.87;2.67;;;19.20;99.90;;;;;;5016303;28;21175;-72
2021/05/16 11:22:46;;;;;;;4.67;2.90;;;19.50;99.90;;;;;;5019611;28;21203;-68
2021/05/16 11:25:24;;;;;;;6.90;2.57;;;20.00;99.90;;;;;;5016370;28;20466;-71
2021/05/16 11:27:49;;;;;;;5.33;3.20;;;20.50;99.90;;;;;;5016365;28;20434;-70
2021/05/16 11:30:16;;;;;;;3.67;3.30;;;20.60;99.90;;;;;;4980903;28;20451;-70
2021/05/16 11:32:42;;;;;;;4.27;2.90;;;20.50;99.90;;;;;;4997160;28;20621;-69
2021/05/16 11:35:17;;;;;;;3.20;2.90;;;21.10;99.90;;;;;;5014864;28;20442;-70
2021/05/16 11:37:46;;;;;;;3.40;3.10;;;21.50;99.90;;;;;;5019150;28;20697;-72
2021/05/16 11:40:22;;;;;;;6.33;3.20;;;20.90;99.90;;;;;;5015789;28;20948;-71
2021/05/16 11:42:54;;;;;;;3.63;2.60;;;20.30;99.90;;;;;;5015169;28;20596;-72
2021/05/16 11:45:20;;;;;;;6.50;3.40;;;20.20;99.90;;;;;;5018046;28;21035;-72
2021/05/16 11:47:45;;;;;;;3.60;2.93;;;20.40;99.90;;;;;;5000010;28;20526;-72
2021/05/16 11:50:12;;;;;;;3.80;3.00;;;20.00;99.90;;;;;;5017687;28;20238;-70
2021/05/16 11:52:38;;;;;;;8.07;3.30;;;19.80;99.90;;;;;;5018552;28;20211;-70
2021/05/16 11:55:11;;;;;;;3.63;2.97;;;20.60;99.90;;;;;;4998918;28;20437;-73
2021/05/16 11:57:45;;;;;;;3.00;2.80;;;21.30;99.90;;;;;;5019819;28;20445;-70
2021/05/16 12:00:13;;;;;;;6.73;3.43;;;21.30;99.90;;;;;;5016026;28;20843;-69
2021/05/16 12:02:40;;;;;;;3.47;3.17;;;20.80;99.90;;;;;;4991401;28;20847;-72
2021/05/16 12:05:06;;;;;;;3.50;3.20;;;20.50;99.90;;;;;;5014326;28;20471;-71
2021/05/16 12:07:32;;;;;;;5.73;2.83;;;20.30;99.90;;;;;;5016209;28;20526;-69
2021/05/16 12:09:59;;;;;;;4.17;3.77;;;20.10;99.90;;;;;;5017153;28;20542;-70
2021/05/16 12:12:27;;;;;;;5.13;3.47;;;19.80;99.90;;;;;;4997264;28;20960;-69
2021/05/16 12:14:55;;;;;;;4.20;3.40;;;19.40;99.90;;;;;;5019040;28;20473;-69
2021/05/16 12:17:30;;;;;;;3.90;2.80;;;19.10;99.90;;;;;;5015214;28;20450;-71
2021/05/16 12:19:55;;;;;;;3.30;3.00;;;19.00;99.90;;;;;;4998966;28;20988;-71
2021/05/16 12:22:21;;;;;;;3.60;3.00;;;19.00;99.90;;;;;;5015067;28;20455;-70
2021/05/16 12:24:48;;;;;;;5.97;3.67;;;18.90;99.90;;;;;;4982075;28;20224;-70
2021/05/16 12:27:19;;;;;;;4.37;2.90;;;18.90;99.90;;;;;;5000592;28;20184;-71
2021/05/16 12:29:47;;;;;;;3.37;3.07;;;19.10;99.90;;;;;;5015888;28;20443;-69
2021/05/16 12:32:26;;;;;;;7.13;4.33;;;19.20;99.90;;;;;;5017771;28;20531;-71
2021/05/16 12:34:52;;;;;;;4.63;3.23;;;19.40;99.90;;;;;;4998274;28;20486;-69
2021/05/16 12:37:24;;;;;;;3.73;2.87;;;19.40;99.90;;;;;;5017332;28;20609;-71
2021/05/16 12:39:56;;;;;;;3.43;2.83;;;19.50;99.90;;;;;;5000132;28;20446;-70
2021/05/16 12:42:37;;;;;;;3.30;3.00;;;19.60;99.90;;;;;;4996669;28;20581;-71
2021/05/16 12:45:20;;;;;;;4.33;3.00;;;19.50;99.90;;;;;;5001032;28;20475;-71
2021/05/16 12:48:03;;;;;;;3.70;2.83;;;19.30;99.90;;;;;;5015388;28;20439;-72
2021/05/16 12:50:45;;;;;;;2.80;2.60;;;19.20;99.90;;;;;;5015940;28;20443;-73
2021/05/16 12:53:30;;;;;;;3.40;2.83;;;19.20;99.90;;;;;;5003206;28;20479;-71